Time;durP1;ratioP1;P1;durP2;ratioP2;P2;SDS_P1;SDS_P2;PMS_P1;PMS_P2;Temp;Humidity;BMP_temperature;BMP_pressure;BME280_temperature;BME280_humidity;BME280_pressure;Samples;Min_cycle;Max_cycle;Signal;HPM_P1;HPM_P2
2023/04/19 00:00:14;;;;;;;11.80;5.00;;;;;;;15.83;65.55;101150.10;107095;1267;25478;-54
2023/04/19 00:02:43;;;;;;;7.90;5.70;;;;;;;15.85;65.53;101148.46;107078;1266;25060;-54
2023/04/19 00:05:12;;;;;;;8.00;4.60;;;;;;;15.86;65.55;101139.14;107090;1267;25430;-54
2023/04/19 00:07:42;;;;;;;14.20;6.70;;;;;;;15.87;65.59;101132.44;107078;1268;25311;-54
2023/04/19 00:10:10;;;;;;;13.60;5.20;;;;;;;15.86;65.51;101128.45;107085;1268;22621;-55
2023/04/19 00:12:39;;;;;;;8.20;5.00;;;;;;;15.85;65.49;101127.83;106923;1270;22595;-54
2023/04/19 00:15:08;;;;;;;10.40;4.90;;;;;;;15.83;65.59;101129.27;107078;1266;25362;-55
2023/04/19 00:17:37;;;;;;;6.40;4.60;;;;;;;15.83;65.54;101120.88;107143;1267;22531;-55
2023/04/19 00:20:07;;;;;;;11.10;5.20;;;;;;;15.88;65.45;101112.47;107026;1271;26069;-54
2023/04/19 00:22:35;;;;;;;8.80;5.40;;;;;;;15.94;65.17;101101.92;106869;1271;23896;-55
2023/04/19 00:25:04;;;;;;;10.80;6.00;;;;;;;15.94;64.91;101095.27;107062;1268;22522;-54
2023/04/19 00:27:33;;;;;;;11.00;6.20;;;;;;;15.93;64.75;101087.61;107062;1267;25525;-55
2023/04/19 00:30:01;;;;;;;12.70;6.80;;;;;;;15.88;64.70;101081.18;107015;1267;25337;-55
2023/04/19 00:32:31;;;;;;;12.60;6.20;;;;;;;15.82;64.96;101077.02;107134;1267;24248;-55
2023/04/19 00:35:00;;;;;;;10.60;5.90;;;;;;;15.78;65.20;101069.63;106826;1267;23891;-55
2023/04/19 00:37:28;;;;;;;10.50;5.60;;;;;;;15.76;65.48;101065.89;107099;1267;25335;-55
2023/04/19 00:39:57;;;;;;;7.90;5.50;;;;;;;15.74;65.84;101064.21;107137;1267;25366;-55
2023/04/19 00:42:26;;;;;;;18.40;6.20;;;;;;;15.72;66.10;101061.14;107034;1267;25414;-55
2023/04/19 00:44:55;;;;;;;9.80;5.50;;;;;;;15.70;66.34;101062.27;106757;1272;25345;-54
2023/04/19 00:47:23;;;;;;;11.80;6.40;;;;;;;15.67;66.54;101064.81;106974;1259;22516;-55
2023/04/19 00:49:52;;;;;;;13.70;6.00;;;;;;;15.65;66.83;101066.31;107119;1269;24338;-55
2023/04/19 00:52:21;;;;;;;11.20;5.70;;;;;;;15.63;67.00;101068.81;106883;1270;24302;-55
2023/04/19 00:54:49;;;;;;;11.80;5.10;;;;;;;15.61;67.07;101068.19;107016;1269;22614;-55
2023/04/19 00:57:20;;;;;;;11.30;5.30;;;;;;;15.61;67.17;101070.83;106807;1269;25420;-55
2023/04/19 00:59:50;;;;;;;13.50;6.00;;;;;;;15.61;67.17;101070.14;106902;1270;25349;-55
2023/04/19 01:02:20;;;;;;;9.00;5.90;;;;;;;15.60;67.17;101068.06;107119;1268;25370;-55
2023/04/19 01:04:50;;;;;;;14.30;6.90;;;;;;;15.58;67.33;101066.91;106777;1267;22525;-54
2023/04/19 01:07:19;;;;;;;14.90;7.40;;;;;;;15.57;67.50;101060.84;106778;1267;25381;-56
2023/04/19 01:09:47;;;;;;;14.40;6.50;;;;;;;15.56;67.62;101062.25;107100;1266;25431;-54
2023/04/19 01:12:15;;;;;;;12.00;6.70;;;;;;;15.56;67.52;101062.44;107094;1267;23208;-54
2023/04/19 01:14:44;;;;;;;11.90;6.30;;;;;;;15.54;67.55;101065.66;107068;1269;24248;-54
2023/04/19 01:17:13;;;;;;;14.30;6.00;;;;;;;15.53;67.62;101061.52;107091;1267;22608;-54
2023/04/19 01:19:41;;;;;;;10.00;6.40;;;;;;;15.50;67.71;101054.29;106951;1267;22517;-54
2023/04/19 01:22:20;;;;;;;9.90;6.20;;;;;;;15.50;67.61;101049.58;107076;1267;22640;-54
2023/04/19 01:24:48;;;;;;;11.30;6.00;;;;;;;15.47;67.67;101044.26;107111;1270;25334;-54
2023/04/19 01:27:18;;;;;;;11.80;6.90;;;;;;;15.43;67.99;101042.47;107051;1273;25342;-54
2023/04/19 01:29:47;;;;;;;10.90;6.50;;;;;;;15.42;68.07;101040.39;107070;1270;25395;-54
2023/04/19 01:32:16;;;;;;;14.70;7.00;;;;;;;15.41;68.10;101042.34;107118;1269;22758;-54
2023/04/19 01:34:44;;;;;;;12.10;6.00;;;;;;;15.40;68.18;101039.93;104711;1267;1005714;-54
2023/04/19 01:37:13;;;;;;;12.70;6.50;;;;;;;15.39;68.26;101038.76;107039;1266;25556;-54
2023/04/19 01:39:42;;;;;;;13.50;5.70;;;;;;;15.37;68.29;101035.67;107072;1269;24276;-54
2023/04/19 01:42:10;;;;;;;6.20;4.70;;;;;;;15.35;68.03;101031.91;107075;1266;24388;-54
2023/04/19 01:44:39;;;;;;;10.30;6.30;;;;;;;15.32;67.68;101034.45;107021;1272;22645;-54
2023/04/19 01:47:07;;;;;;;17.20;6.00;;;;;;;15.31;67.38;101030.14;106855;1269;25337;-55
2023/04/19 01:49:36;;;;;;;11.00;5.50;;;;;;;15.24;67.30;101021.11;106977;1271;24433;-55
2023/04/19 01:52:05;;;;;;;9.20;5.20;;;;;;;15.20;67.01;101017.23;106837;1271;25321;-55
2023/04/19 01:54:33;;;;;;;12.50;6.00;;;;;;;15.19;66.73;101014.69;107141;1268;25546;-55
2023/04/19 01:57:02;;;;;;;15.20;5.60;;;;;;;15.18;66.56;101010.86;107111;1267;25369;-55
2023/04/19 01:59:31;;;;;;;10.50;5.80;;;;;;;15.17;66.30;101001.63;106992;1269;22521;-55
2023/04/19 02:01:59;;;;;;;13.90;5.60;;;;;;;15.16;66.03;100998.55;107023;1267;24339;-55
2023/04/19 02:04:28;;;;;;;11.00;6.40;;;;;;;15.15;65.97;100997.86;106972;1268;25522;-54
2023/04/19 02:06:58;;;;;;;12.40;6.50;;;;;;;15.14;66.05;100994.23;107115;1269;24201;-54
2023/04/19 02:09:27;;;;;;;10.00;6.40;;;;;;;15.17;65.85;100985.21;106876;1269;25527;-54
2023/04/19 02:11:56;;;;;;;11.10;6.90;;;;;;;15.17;65.70;100983.11;107027;1270;22639;-54
2023/04/19 02:14:25;;;;;;;14.70;7.00;;;;;;;15.15;65.72;100988.09;107085;1266;25385;-54
2023/04/19 02:16:54;;;;;;;11.30;6.60;;;;;;;15.15;65.80;100981.80;106997;1267;25511;-55
2023/04/19 02:19:22;;;;;;;12.40;6.70;;;;;;;15.16;65.76;100974.42;106999;1267;22527;-55
2023/04/19 02:21:52;;;;;;;12.20;6.30;;;;;;;15.17;65.69;100973.14;106888;1273;25365;-55
2023/04/19 02:24:20;;;;;;;12.70;6.30;;;;;;;15.17;65.62;100969.48;107134;1269;24292;-54
2023/04/19 02:26:49;;;;;;;9.60;6.50;;;;;;;15.16;65.69;100967.77;106849;1273;24333;-54
2023/04/19 02:29:18;;;;;;;12.60;6.90;;;;;;;15.16;65.79;100968.49;106840;1267;22511;-54
2023/04/19 02:31:46;;;;;;;16.90;7.30;;;;;;;15.15;65.86;100966.94;107031;1270;25360;-54
2023/04/19 02:34:15;;;;;;;12.20;6.90;;;;;;;15.14;65.86;100971.52;107065;1270;25494;-55
2023/04/19 02:36:44;;;;;;;12.70;6.90;;;;;;;15.14;65.91;100967.52;107010;1269;25395;-55
2023/04/19 02:39:12;;;;;;;11.20;7.20;;;;;;;15.14;65.90;100968.91;106862;1271;25537;-54
2023/04/19 02:41:40;;;;;;;18.50;10.80;;;;;;;15.15;65.86;100967.30;107165;1271;25343;-54
2023/04/19 02:44:09;;;;;;;22.80;14.20;;;;;;;15.15;65.62;100969.56;107110;1270;25337;-54
2023/04/19 02:46:38;;;;;;;28.20;14.90;;;;;;;15.14;65.33;100971.88;107193;1266;25415;-54
2023/04/19 02:49:08;;;;;;;27.00;14.20;;;;;;;15.13;65.30;100968.23;106862;1267;22504;-54
2023/04/19 02:51:37;;;;;;;24.00;14.70;;;;;;;15.15;65.14;100974.28;107158;1270;25345;-54
2023/04/19 02:54:06;;;;;;;22.30;13.60;;;;;;;15.17;64.98;100973.16;107172;1266;25414;-54
2023/04/19 02:56:34;;;;;;;22.20;12.50;;;;;;;15.17;64.62;100976.64;106807;1265;24367;-54
2023/04/19 02:59:03;;;;;;;16.90;12.00;;;;;;;15.15;64.62;100979.16;107213;1267;25394;-54
2023/04/19 03:01:32;;;;;;;21.30;12.10;;;;;;;15.15;64.65;100979.88;106767;1267;22552;-54
2023/04/19 03:04:03;;;;;;;23.50;12.20;;;;;;;15.15;64.53;100982.15;106972;1270;25440;-54
2023/04/19 03:06:32;;;;;;;25.00;12.30;;;;;;;15.16;64.51;100982.30;107124;1269;25342;-54
2023/04/19 03:09:02;;;;;;;25.50;13.10;;;;;;;15.13;64.49;100979.59;107025;1267;22708;-54
2023/04/19 03:11:30;;;;;;;18.90;11.70;;;;;;;15.13;64.52;100981.52;106778;1274;22524;-54
2023/04/19 03:13:59;;;;;;;20.90;9.10;;;;;;;15.13;64.46;100985.91;106956;1270;25338;-54
2023/04/19 03:16:29;;;;;;;25.40;10.10;;;;;;;15.09;64.35;100985.32;107106;1266;26604;-54
2023/04/19 03:18:58;;;;;;;17.60;8.40;;;;;;;15.06;64.44;100982.47;107056;1268;25578;-54
2023/04/19 03:21:28;;;;;;;18.10;7.10;;;;;;;15.03;64.48;100980.48;107070;1270;25271;-55
2023/04/19 03:23:56;;;;;;;18.70;7.30;;;;;;;15.01;64.66;100981.11;107148;1272;23896;-54
2023/04/19 03:26:25;;;;;;;9.40;6.40;;;;;;;14.98;64.83;100977.90;106773;1272;25337;-54
2023/04/19 03:28:56;;;;;;;18.40;7.20;;;;;;;14.94;65.07;100976.98;106665;1278;24209;-54
2023/04/19 03:31:39;;;;;;;18.90;7.30;;;;;;;14.91;65.36;100977.64;106708;1272;25355;-55
2023/04/19 03:34:10;;;;;;;17.70;7.80;;;;;;;14.90;65.51;100976.80;106663;1273;25245;-55
2023/04/19 03:36:40;;;;;;;14.40;6.90;;;;;;;14.88;65.64;100978.97;106689;1256;22666;-55
2023/04/19 03:39:09;;;;;;;19.80;7.40;;;;;;;14.86;65.85;100979.17;106462;1277;22769;-55
2023/04/19 03:41:39;;;;;;;19.70;6.90;;;;;;;14.86;65.98;100978.87;106673;1274;24273;-55
2023/04/19 03:44:15;;;;;;;14.60;7.00;;;;;;;14.86;66.00;100977.64;106698;1272;25278;-55
2023/04/19 03:46:45;;;;;;;15.00;7.20;;;;;;;14.85;65.99;100974.34;106673;1265;25544;-55
2023/04/19 03:49:15;;;;;;;16.70;6.30;;;;;;;14.84;65.98;100972.46;106740;1277;25533;-55
2023/04/19 03:51:46;;;;;;;18.10;7.10;;;;;;;14.83;66.16;100967.27;106709;1273;24294;-55
2023/04/19 03:54:15;;;;;;;12.10;5.70;;;;;;;14.82;66.08;100962.42;106345;1272;24237;-55
2023/04/19 03:56:44;;;;;;;13.30;6.10;;;;;;;14.82;66.11;100960.15;106709;1276;22533;-54
2023/04/19 03:59:13;;;;;;;16.90;6.80;;;;;;;14.81;66.07;100953.19;107005;1269;22536;-54
2023/04/19 04:01:42;;;;;;;13.00;6.20;;;;;;;14.78;66.11;100949.09;107096;1266;23890;-55
2023/04/19 04:04:11;;;;;;;15.90;7.30;;;;;;;14.76;66.02;100946.21;107011;1267;25575;-55
2023/04/19 04:06:40;;;;;;;18.90;6.80;;;;;;;14.73;66.03;100938.99;107053;1269;24279;-55
2023/04/19 04:09:09;;;;;;;16.80;6.60;;;;;;;14.68;66.15;100932.31;106755;1276;22536;-54
2023/04/19 04:11:37;;;;;;;15.40;6.80;;;;;;;14.66;66.16;100931.70;107150;1271;22532;-55
2023/04/19 04:14:06;;;;;;;16.40;6.60;;;;;;;14.63;66.20;100922.70;107188;1268;25338;-54
2023/04/19 04:16:36;;;;;;;19.50;6.50;;;;;;;14.61;66.16;100924.36;106107;1270;1003001;-54
2023/04/19 04:19:06;;;;;;;14.80;6.90;;;;;;;14.61;66.26;100929.09;106660;1274;25526;-54
2023/04/19 04:21:37;;;;;;;16.90;6.20;;;;;;;14.61;66.22;100929.96;106817;1267;25500;-55
2023/04/19 04:24:06;;;;;;;18.90;6.00;;;;;;;14.62;66.20;100932.39;107131;1269;22503;-55
2023/04/19 04:26:56;;;;;;;15.40;5.70;;;;;;;14.65;66.04;100931.41;107061;1268;22528;-54
2023/04/19 04:29:29;;;;;;;14.20;6.70;;;;;;;14.67;65.92;100926.41;106786;1274;22739;-55
2023/04/19 04:31:59;;;;;;;13.10;5.90;;;;;;;14.69;65.85;100926.89;106868;1274;22799;-54
2023/04/19 04:34:34;;;;;;;13.80;5.60;;;;;;;14.71;65.69;100928.74;106891;1275;25499;-54
2023/04/19 04:37:07;;;;;;;12.40;6.30;;;;;;;14.72;65.57;100928.54;107068;1271;25808;-55
2023/04/19 04:39:38;;;;;;;12.70;5.50;;;;;;;14.73;65.65;100924.15;107021;1271;24228;-55
2023/04/19 04:42:09;;;;;;;20.60;5.50;;;;;;;14.76;65.53;100915.99;107039;1267;25331;-55
2023/04/19 04:44:37;;;;;;;11.10;5.50;;;;;;;14.78;65.47;100910.31;106701;1275;25334;-55
2023/04/19 04:47:07;;;;;;;14.40;5.60;;;;;;;14.83;65.37;100902.98;107054;1266;25328;-55
2023/04/19 04:49:40;;;;;;;14.50;5.30;;;;;;;14.87;65.05;100903.71;107082;1268;25328;-54
2023/04/19 04:52:09;;;;;;;10.10;5.00;;;;;;;14.89;64.68;100893.86;107043;1268;25450;-54
2023/04/19 04:54:44;;;;;;;12.80;4.70;;;;;;;14.88;64.53;100892.85;107062;1267;25331;-55
2023/04/19 04:57:20;;;;;;;11.90;5.10;;;;;;;14.89;64.43;100888.77;106674;1272;25372;-54
2023/04/19 04:59:49;;;;;;;14.20;5.80;;;;;;;14.91;64.26;100886.09;107165;1271;25350;-54
2023/04/19 05:02:18;;;;;;;10.90;4.60;;;;;;;14.93;64.22;100880.98;106933;1268;22523;-55
2023/04/19 05:04:47;;;;;;;8.60;4.60;;;;;;;14.96;63.95;100892.36;107057;1267;25517;-55
2023/04/19 05:07:15;;;;;;;10.00;4.40;;;;;;;14.98;63.90;100896.13;107008;1270;25398;-56
2023/04/19 05:09:44;;;;;;;8.30;4.90;;;;;;;15.01;63.72;100901.77;106854;1269;25415;-55
2023/04/19 05:12:14;;;;;;;13.30;4.70;;;;;;;15.05;63.64;100895.00;106979;1268;25356;-54
2023/04/19 05:14:42;;;;;;;10.90;4.60;;;;;;;15.08;63.50;100898.01;107118;1270;22530;-54
2023/04/19 05:17:11;;;;;;;10.20;5.00;;;;;;;15.10;63.28;100902.30;106855;1269;25398;-55
2023/04/19 05:19:39;;;;;;;11.80;5.00;;;;;;;15.12;63.02;100913.61;107112;1267;25331;-54
2023/04/19 05:22:08;;;;;;;10.30;4.30;;;;;;;15.12;62.92;100921.79;107144;1267;25328;-54
2023/04/19 05:24:38;;;;;;;11.80;5.30;;;;;;;15.14;62.94;100926.26;106950;1251;24311;-54
2023/04/19 05:27:10;;;;;;;11.80;5.40;;;;;;;15.18;62.85;100923.16;107146;1270;24235;-54
2023/04/19 05:29:38;;;;;;;12.00;5.00;;;;;;;15.19;62.64;100923.27;107007;1275;24217;-54
2023/04/19 05:32:07;;;;;;;12.80;5.80;;;;;;;15.21;62.54;100921.09;106575;1275;25356;-54
2023/04/19 05:35:05;;;;;;;11.20;4.90;;;;;;;15.24;62.46;100927.61;106884;1273;25362;-54
2023/04/19 05:37:35;;;;;;;16.70;5.40;;;;;;;15.27;62.63;100933.29;107082;1267;23231;-54
2023/04/19 05:40:08;;;;;;;9.50;4.50;;;;;;;15.32;62.53;100938.69;106835;1275;22527;-54
2023/04/19 05:42:37;;;;;;;10.80;4.90;;;;;;;15.39;62.24;100941.21;106883;1270;24218;-54
2023/04/19 05:45:08;;;;;;;15.90;5.40;;;;;;;15.45;61.78;100936.97;107183;1272;25331;-54
2023/04/19 05:47:37;;;;;;;15.90;5.30;;;;;;;15.49;61.63;100936.64;106833;1270;22688;-54
2023/04/19 05:50:16;;;;;;;12.00;5.20;;;;;;;15.55;61.46;100940.61;107046;1268;25331;-54
2023/04/19 05:52:51;;;;;;;12.70;5.40;;;;;;;15.61;61.54;100944.38;107126;1271;25340;-55
2023/04/19 05:55:20;;;;;;;12.00;5.60;;;;;;;15.69;61.71;100946.52;107043;1270;25357;-55
2023/04/19 05:57:49;;;;;;;8.40;4.80;;;;;;;15.78;61.84;100945.27;106958;1269;25335;-54
2023/04/19 06:00:17;;;;;;;10.90;5.40;;;;;;;15.89;61.65;100946.57;107077;1268;24215;-54
2023/04/19 06:02:51;;;;;;;13.30;5.60;;;;;;;15.98;61.12;100949.55;106864;1268;23859;-53
2023/04/19 06:05:22;;;;;;;13.80;5.20;;;;;;;16.03;60.87;100958.77;106871;1274;25347;-54
2023/04/19 06:07:55;;;;;;;13.10;4.70;;;;;;;16.07;60.67;100962.65;107130;1269;24397;-54
2023/04/19 06:10:30;;;;;;;12.70;5.10;;;;;;;16.10;60.60;100965.13;107067;1269;22593;-54
2023/04/19 06:13:18;;;;;;;14.80;5.90;;;;;;;16.15;60.69;100971.20;107156;1273;26735;-54
2023/04/19 06:15:47;;;;;;;14.50;5.00;;;;;;;16.23;60.34;100977.18;107043;1269;25347;-54
2023/04/19 06:18:18;;;;;;;15.20;6.80;;;;;;;16.32;60.18;100983.48;107094;1266;24713;-54
2023/04/19 06:20:47;;;;;;;16.40;5.80;;;;;;;16.42;60.03;100993.04;106850;1270;22536;-55
2023/04/19 06:23:17;;;;;;;11.80;5.50;;;;;;;16.49;59.65;100996.06;107077;1267;25365;-54
2023/04/19 06:25:47;;;;;;;10.40;5.10;;;;;;;16.55;59.18;101006.54;107052;1273;23892;-54
2023/04/19 06:28:16;;;;;;;12.80;6.00;;;;;;;16.56;58.67;101015.41;107072;1270;22530;-53
2023/04/19 06:30:44;;;;;;;14.90;5.70;;;;;;;16.57;58.42;101021.85;107043;1266;26658;-54
2023/04/19 06:33:13;;;;;;;10.10;4.70;;;;;;;16.58;57.87;101023.20;107098;1269;22522;-54
2023/04/19 06:35:41;;;;;;;11.30;4.80;;;;;;;16.59;57.65;101022.65;107080;1269;25359;-54
2023/04/19 06:38:10;;;;;;;9.90;4.60;;;;;;;16.57;57.57;101020.09;107071;1270;25394;-54
2023/04/19 06:40:38;;;;;;;12.60;4.50;;;;;;;16.55;57.55;101018.11;106848;1267;25382;-54
2023/04/19 06:43:07;;;;;;;9.70;4.60;;;;;;;16.54;57.50;101017.60;107073;1267;25429;-54
2023/04/19 06:45:35;;;;;;;10.90;4.60;;;;;;;16.52;57.73;101015.07;107067;1271;25578;-54
2023/04/19 06:48:04;;;;;;;13.00;5.60;;;;;;;16.53;57.84;101016.24;106884;1267;24293;-54
2023/04/19 06:50:33;;;;;;;13.40;4.50;;;;;;;16.55;58.12;101014.57;105600;1269;1003370;-53
2023/04/19 06:53:01;;;;;;;14.50;4.40;;;;;;;16.59;57.88;101017.56;106421;1275;25334;-53
2023/04/19 06:55:32;;;;;;;12.20;3.70;;;;;;;16.61;57.57;101020.82;107135;1254;23858;-54
2023/04/19 06:58:01;;;;;;;9.50;4.60;;;;;;;16.60;57.42;101022.09;107044;1267;24960;-54
2023/04/19 07:00:30;;;;;;;10.50;4.10;;;;;;;16.58;57.41;101023.22;106912;1269;25507;-54
2023/04/19 07:02:59;;;;;;;15.00;5.70;;;;;;;16.55;57.56;101020.73;107116;1267;25341;-54
2023/04/19 07:05:29;;;;;;;11.30;5.30;;;;;;;16.52;57.55;101022.39;106879;1268;22667;-54
2023/04/19 07:07:58;;;;;;;11.90;5.10;;;;;;;16.52;57.57;101026.80;107040;1267;24322;-54
2023/04/19 07:10:26;;;;;;;18.30;6.60;;;;;;;16.50;57.37;101028.09;107044;1266;24040;-54
2023/04/19 07:16:19;;;;;;;9.80;5.60;;;;;;;16.53;57.26;101024.84;103630;1307;545045;-54
2023/04/19 07:18:48;;;;;;;12.80;5.60;;;;;;;16.50;57.10;101024.25;105945;1282;24289;-54
2023/04/19 07:21:16;;;;;;;13.00;4.70;;;;;;;16.49;57.26;101026.36;105910;1282;25315;-54
2023/04/19 07:23:45;;;;;;;13.90;5.10;;;;;;;16.39;57.45;101025.92;105918;1281;23278;-54
2023/04/19 07:26:13;;;;;;;11.10;4.50;;;;;;;16.25;57.70;101022.08;105981;1285;24050;-54
2023/04/19 07:28:42;;;;;;;12.90;4.40;;;;;;;16.19;57.89;101013.92;105952;1283;25388;-54
2023/04/19 07:31:17;;;;;;;7.30;4.20;;;;;;;16.14;57.92;101010.47;106108;1280;208075;-53
2023/04/19 07:33:46;;;;;;;11.40;4.00;;;;;;;16.09;57.93;101002.77;106175;1280;24260;-54
2023/04/19 07:36:14;;;;;;;15.60;4.90;;;;;;;16.05;58.17;101003.98;106292;1280;25383;-54
2023/04/19 07:38:43;;;;;;;13.70;5.00;;;;;;;16.01;58.20;101002.42;106187;1280;25347;-54
2023/04/19 07:41:11;;;;;;;8.70;3.80;;;;;;;15.97;58.44;101008.19;106222;1280;24253;-54
2023/04/19 07:43:40;;;;;;;10.60;4.30;;;;;;;15.95;58.53;101009.68;106298;1281;25350;-55
2023/04/19 07:46:12;;;;;;;10.60;4.50;;;;;;;15.94;58.56;101010.77;106227;1280;25383;-54
2023/04/19 07:48:40;;;;;;;9.80;4.40;;;;;;;15.95;58.51;101017.20;105886;1280;23018;-54
2023/04/19 07:51:09;;;;;;;10.20;4.90;;;;;;;16.06;58.12;101018.33;106210;1280;23152;-54
2023/04/19 07:53:38;;;;;;;7.00;3.90;;;;;;;16.07;58.18;101023.34;106121;1281;24281;-54
2023/04/19 07:56:07;;;;;;;7.70;4.10;;;;;;;16.05;58.27;101030.80;106266;1280;24368;-54
2023/04/19 07:58:37;;;;;;;10.00;4.40;;;;;;;16.03;58.57;101037.33;106619;1273;22653;-54
2023/04/19 08:01:05;;;;;;;10.40;4.40;;;;;;;16.05;58.98;101041.09;106618;1275;25450;-54
2023/04/19 08:03:35;;;;;;;9.80;4.50;;;;;;;16.07;59.33;101043.83;106742;1273;25341;-54
2023/04/19 08:06:06;;;;;;;11.80;4.20;;;;;;;16.08;59.44;101037.31;106557;1275;22687;-53
2023/04/19 08:08:35;;;;;;;10.50;4.20;;;;;;;16.07;59.44;101030.86;106521;1274;25474;-54
2023/04/19 08:11:04;;;;;;;9.40;4.30;;;;;;;16.04;59.47;101025.92;106500;1277;25389;-54
2023/04/19 08:13:33;;;;;;;7.00;4.00;;;;;;;16.00;59.58;101029.76;106685;1274;24326;-54
2023/04/19 08:16:02;;;;;;;13.50;4.30;;;;;;;15.98;59.96;101032.80;106361;1262;24360;-54
2023/04/19 08:18:51;;;;;;;10.40;4.30;;;;;;;15.99;60.30;101032.77;106208;1274;23890;-54
2023/04/19 08:21:20;;;;;;;12.50;4.70;;;;;;;15.99;60.28;101037.81;106225;1279;24395;-54
2023/04/19 08:23:58;;;;;;;15.00;5.20;;;;;;;15.96;60.52;101038.14;106217;1276;25444;-54
2023/04/19 08:26:26;;;;;;;11.60;4.40;;;;;;;15.94;60.77;101033.50;106324;1273;24251;-54
2023/04/19 08:28:55;;;;;;;10.00;4.20;;;;;;;15.93;60.92;101035.13;106314;1275;25503;-54
2023/04/19 08:31:23;;;;;;;9.40;4.60;;;;;;;15.90;60.90;101034.17;106734;1272;24676;-54
2023/04/19 08:33:52;;;;;;;9.20;5.00;;;;;;;15.89;61.20;101032.14;107033;1272;23439;-54
2023/04/19 08:36:21;;;;;;;11.30;5.10;;;;;;;15.77;61.80;101017.73;106663;1272;22530;-54
2023/04/19 08:39:05;;;;;;;15.20;5.90;;;;;;;15.65;61.79;101012.80;106770;1261;22565;-54
2023/04/19 08:41:45;;;;;;;16.40;8.20;;;;;;;15.50;61.95;101010.20;106677;1274;22608;-54
2023/04/19 08:44:17;;;;;;;14.20;7.30;;;;;;;15.36;62.36;101004.94;106524;1274;22523;-54
2023/04/19 08:47:03;;;;;;;15.60;8.00;;;;;;;15.21;62.96;101003.77;106974;1273;23299;-54
2023/04/19 08:49:35;;;;;;;12.00;7.30;;;;;;;15.11;63.48;101006.06;106258;1272;22538;-54
2023/04/19 08:52:07;;;;;;;13.70;6.30;;;;;;;15.05;63.97;101006.45;106614;1274;25438;-55
2023/04/19 08:54:35;;;;;;;9.20;5.20;;;;;;;15.00;64.18;101005.94;106534;1276;22527;-54
2023/04/19 08:57:03;;;;;;;8.50;5.20;;;;;;;14.91;64.61;101002.96;106388;1279;25428;-55
2023/04/19 08:59:32;;;;;;;11.30;6.30;;;;;;;14.81;65.21;100995.45;106772;1265;24369;-55
2023/04/19 09:02:01;;;;;;;12.40;7.20;;;;;;;14.72;65.59;100981.79;106717;1268;25377;-55
2023/04/19 09:04:30;;;;;;;18.10;8.70;;;;;;;14.62;65.94;100970.10;106819;1273;24058;-55
2023/04/19 09:07:04;;;;;;;19.60;8.10;;;;;;;14.53;66.54;100968.67;106892;1274;25502;-56
2023/04/19 09:09:34;;;;;;;8.40;5.80;;;;;;;14.47;66.93;100972.35;107376;1273;22537;-56
2023/04/19 09:12:19;;;;;;;13.90;6.50;;;;;;;14.42;67.47;100979.86;107156;1274;25291;-56
2023/04/19 09:14:47;;;;;;;13.70;6.50;;;;;;;14.41;67.88;100984.61;106920;1273;22660;-55
2023/04/19 09:17:19;;;;;;;11.00;5.80;;;;;;;14.39;67.96;100987.48;107034;1272;25373;-56
2023/04/19 09:19:48;;;;;;;10.10;5.60;;;;;;;14.37;68.21;100986.66;106891;1257;25457;-55
2023/04/19 09:22:17;;;;;;;8.40;5.70;;;;;;;14.36;68.45;100987.21;106541;1279;24709;-56
2023/04/19 09:24:46;;;;;;;11.80;5.60;;;;;;;14.35;68.76;100988.48;106585;1277;22622;-55
2023/04/19 09:27:26;;;;;;;;;;;;;;;14.35;68.70;100988.48;107297;1267;23392;-56
2023/04/19 09:29:56;;;;;;;8.90;5.80;;;;;;;14.35;68.83;100984.47;106911;1271;25402;-55
2023/04/19 09:32:25;;;;;;;12.80;6.30;;;;;;;14.34;69.08;100973.50;107328;1272;25469;-55
2023/04/19 09:34:58;;;;;;;14.90;7.70;;;;;;;14.32;69.23;100969.89;107800;1265;24435;-55
2023/04/19 09:37:26;;;;;;;12.10;6.00;;;;;;;14.31;69.33;100969.73;107450;1272;24211;-55
2023/04/19 09:40:22;;;;;;;13.40;6.30;;;;;;;14.31;69.55;100970.64;107499;1272;22649;-55
2023/04/19 09:42:51;;;;;;;12.30;6.50;;;;;;;14.31;69.54;100970.10;106918;1265;23176;-55
2023/04/19 09:45:22;;;;;;;12.60;7.00;;;;;;;14.29;69.64;100963.71;106658;1279;25444;-56
2023/04/19 09:51:18;;;;;;;12.00;7.10;;;;;;;14.27;70.05;100940.90;103785;1307;545849;-55
2023/04/19 09:53:47;;;;;;;10.00;6.60;;;;;;;14.23;70.30;100946.09;106308;1285;22562;-57
2023/04/19 09:56:15;;;;;;;10.30;7.10;;;;;;;14.20;70.54;100944.27;105818;1279;25522;-56
2023/04/19 09:58:44;;;;;;;11.50;6.40;;;;;;;14.19;70.70;100941.38;106239;1281;26219;-55
2023/04/19 10:01:21;;;;;;;11.70;6.40;;;;;;;14.18;70.88;100935.98;106434;1283;22537;-56
2023/04/19 10:03:50;;;;;;;11.00;7.70;;;;;;;14.17;71.06;100928.85;105792;1275;225644;-56
2023/04/19 10:06:20;;;;;;;14.40;7.10;;;;;;;14.16;71.29;100929.39;106814;1265;22533;-57
2023/04/19 10:08:53;;;;;;;13.90;7.90;;;;;;;14.19;71.65;100933.33;106344;1282;24121;-56
2023/04/19 10:11:21;;;;;;;12.40;6.80;;;;;;;14.22;71.78;100939.15;106263;1282;25256;-57
2023/04/19 10:13:52;;;;;;;11.10;7.00;;;;;;;14.27;71.96;100936.39;106252;1278;25460;-57
2023/04/19 10:16:21;;;;;;;14.50;7.80;;;;;;;14.32;71.98;100937.61;106536;1277;24253;-57
2023/04/19 10:18:51;;;;;;;16.30;7.70;;;;;;;14.39;72.12;100938.08;106213;1279;25338;-57
2023/04/19 10:21:19;;;;;;;12.00;7.10;;;;;;;14.54;71.95;100942.09;106702;1278;22535;-57
2023/04/19 10:23:49;;;;;;;15.90;7.70;;;;;;;14.63;72.02;100947.52;106729;1272;25259;-57
2023/04/19 10:26:17;;;;;;;12.80;6.30;;;;;;;14.71;72.05;100946.72;106397;1272;25356;-57
2023/04/19 10:28:46;;;;;;;13.10;6.90;;;;;;;14.78;71.99;100948.90;106185;1279;22536;-57
2023/04/19 10:31:15;;;;;;;15.20;7.70;;;;;;;14.83;71.96;100952.58;106559;1272;22568;-57
2023/04/19 10:33:44;;;;;;;11.40;7.70;;;;;;;14.88;71.78;100956.61;106313;1272;22942;-57
2023/04/19 10:36:16;;;;;;;11.90;7.10;;;;;;;14.90;71.67;100961.77;106649;1272;22526;-57
2023/04/19 10:38:50;;;;;;;12.60;7.40;;;;;;;14.94;71.67;100965.65;106644;1272;22517;-57
2023/04/19 10:41:18;;;;;;;13.10;6.50;;;;;;;14.97;71.47;100971.13;106441;1278;22552;-57
2023/04/19 10:44:07;;;;;;;16.10;7.80;;;;;;;15.00;71.48;100967.13;106712;1272;25539;-57
2023/04/19 10:46:38;;;;;;;14.00;8.50;;;;;;;15.03;71.35;100965.30;106612;1276;22534;-57
2023/04/19 10:49:08;;;;;;;11.20;8.20;;;;;;;15.05;71.24;100968.88;106710;1276;22527;-57
2023/04/19 10:51:38;;;;;;;11.10;7.10;;;;;;;15.07;71.24;100968.98;106606;1275;22648;-56
2023/04/19 10:54:08;;;;;;;9.80;6.50;;;;;;;15.11;71.22;100982.12;106625;1278;23498;-57
2023/04/19 10:56:38;;;;;;;11.20;6.50;;;;;;;15.17;71.08;100988.19;106621;1272;25305;-56
2023/04/19 10:59:14;;;;;;;12.50;6.60;;;;;;;15.23;70.91;100982.71;106702;1272;23893;-56
2023/04/19 11:01:44;;;;;;;15.60;6.80;;;;;;;15.25;70.59;100971.29;106632;1272;22994;-56
2023/04/19 11:04:20;;;;;;;12.10;7.30;;;;;;;15.23;70.50;100970.84;106648;1278;25353;-56
2023/04/19 11:07:10;;;;;;;12.10;6.70;;;;;;;15.23;70.02;100979.91;106283;1275;22642;-55
2023/04/19 11:10:03;;;;;;;16.00;7.10;;;;;;;15.23;70.14;100979.20;105985;1275;25562;-57
2023/04/19 11:12:32;;;;;;;14.80;6.50;;;;;;;15.18;70.47;100984.13;106237;1271;22542;-55
2023/04/19 11:15:01;;;;;;;11.60;6.00;;;;;;;15.18;70.86;100988.16;106250;1281;25402;-55
2023/04/19 11:17:30;;;;;;;10.90;6.20;;;;;;;15.24;70.83;100987.76;106406;1278;22532;-56
2023/04/19 11:20:00;;;;;;;12.10;5.50;;;;;;;15.36;70.40;100980.83;106474;1271;22639;-56
2023/04/19 11:22:31;;;;;;;9.50;5.60;;;;;;;15.39;70.05;100979.31;106561;1273;22775;-55
2023/04/19 11:25:10;;;;;;;12.60;6.30;;;;;;;15.36;69.86;100975.39;106554;1273;24064;-56
2023/04/19 11:27:40;;;;;;;10.60;5.40;;;;;;;15.35;69.76;100971.97;106501;1276;22617;-55
2023/04/19 11:30:13;;;;;;;10.60;6.50;;;;;;;15.31;69.73;100962.48;106648;1269;22539;-56